createdAt,value
2019-02-24T00:01:30.053Z,38.33
2019-02-24T00:03:59.459Z,35.13
2019-02-24T00:06:28.920Z,36.38
2019-02-24T00:08:58.483Z,41.05
2019-02-24T00:11:28.172Z,37.13
2019-02-24T00:13:57.598Z,37.63
2019-02-24T00:16:27.141Z,38.78
2019-02-24T00:18:56.547Z,39.15
2019-02-24T00:21:26.026Z,41.83
2019-02-24T00:23:55.610Z,39.65
2019-02-24T00:26:25.068Z,41.18
2019-02-24T00:28:54.538Z,41.88
2019-02-24T00:31:23.966Z,40.60
2019-02-24T00:33:53.417Z,39.58
2019-02-24T00:36:23.919Z,40.33
2019-02-24T00:38:53.359Z,38.98
2019-02-24T00:41:22.807Z,39.50
2019-02-24T00:43:52.287Z,39.75
2019-02-24T00:46:21.826Z,41.33
2019-02-24T00:48:51.292Z,40.10
2019-02-24T00:51:20.938Z,46.80
2019-02-24T00:53:50.404Z,44.77
2019-02-24T00:56:19.922Z,40.83
2019-02-24T00:58:49.382Z,38.70
2019-02-24T01:01:19.108Z,41.30
2019-02-24T01:03:48.576Z,40.35
2019-02-24T01:06:18.110Z,41.35
2019-02-24T01:08:47.586Z,38.90
2019-02-24T01:11:17.058Z,44.27
2019-02-24T01:13:46.524Z,43.73
2019-02-24T01:16:16.454Z,40.58
2019-02-24T01:18:45.912Z,40.43
2019-02-24T01:21:15.310Z,42.20
2019-02-24T01:23:44.774Z,41.05
2019-02-24T01:26:14.235Z,42.48
2019-02-24T01:28:43.694Z,39.55
2019-02-24T01:31:13.221Z,42.20
2019-02-24T01:33:42.632Z,44.45
2019-02-24T01:36:12.108Z,43.52
2019-02-24T01:38:41.639Z,42.03
2019-02-24T01:41:11.155Z,43.45
2019-02-24T01:43:40.691Z,44.15
2019-02-24T01:46:10.142Z,42.75
2019-02-24T01:48:39.653Z,42.15
2019-02-24T01:51:09.446Z,42.60
2019-02-24T01:53:38.918Z,42.43
2019-02-24T01:56:08.473Z,42.85
2019-02-24T01:58:37.934Z,43.68
2019-02-24T02:01:07.620Z,43.02
2019-02-24T02:03:37.150Z,42.65
2019-02-24T02:06:06.563Z,43.00
2019-02-24T02:08:36.011Z,43.65
2019-02-24T02:11:05.489Z,45.17
2019-02-24T02:13:34.953Z,42.75
2019-02-24T02:16:04.378Z,46.80
2019-02-24T02:18:33.838Z,45.48
2019-02-24T02:21:03.389Z,40.70
2019-02-24T02:23:32.890Z,45.23
2019-02-24T02:26:02.373Z,46.13
2019-02-24T02:28:31.826Z,44.50
2019-02-24T02:31:01.279Z,42.70
2019-02-24T02:33:30.718Z,45.67
2019-02-24T02:36:00.290Z,43.95
2019-02-24T02:38:29.728Z,44.33
2019-02-24T02:40:59.501Z,45.10
2019-02-24T02:43:28.971Z,43.87
2019-02-24T02:45:58.463Z,42.58
2019-02-24T02:48:27.949Z,43.75
2019-02-24T02:50:57.389Z,45.10
2019-02-24T02:53:26.775Z,43.73
2019-02-24T02:55:56.227Z,43.73
2019-02-24T02:58:25.790Z,43.10
2019-02-24T03:00:55.238Z,45.30
2019-02-24T03:03:25.798Z,43.10
2019-02-24T03:05:56.854Z,46.08
2019-02-24T03:08:27.946Z,42.45
2019-02-24T03:10:57.379Z,44.80
2019-02-24T03:13:27.209Z,43.98
2019-02-24T03:15:56.614Z,42.88
2019-02-24T03:18:26.053Z,46.45
2019-02-24T03:20:55.537Z,42.43
2019-02-24T03:23:25.071Z,46.60
2019-02-24T03:25:54.496Z,43.45
2019-02-24T03:28:23.943Z,42.95
2019-02-24T03:30:53.366Z,46.02
2019-02-24T03:33:22.895Z,45.50
2019-02-24T03:35:52.338Z,46.03
2019-02-24T03:38:21.813Z,44.67
2019-02-24T03:40:51.269Z,46.88
2019-02-24T03:43:20.681Z,46.63
2019-02-24T03:45:50.129Z,46.28
2019-02-24T03:48:19.603Z,45.67
2019-02-24T03:50:49.081Z,45.45
2019-02-24T03:53:18.602Z,47.65
2019-02-24T03:55:48.139Z,45.48
2019-02-24T03:58:17.688Z,42.40
2019-02-24T04:00:47.160Z,47.00
2019-02-24T04:03:16.580Z,43.05
2019-02-24T04:05:46.032Z,42.83
2019-02-24T04:08:15.461Z,41.00
2019-02-24T04:10:44.935Z,44.00
2019-02-24T04:13:14.353Z,42.50
2019-02-24T04:15:43.802Z,44.45
2019-02-24T04:18:13.317Z,46.73
2019-02-24T04:20:42.775Z,41.63
2019-02-24T04:23:12.220Z,44.23
2019-02-24T04:25:41.621Z,42.78
2019-02-24T04:28:11.087Z,42.55
2019-02-24T04:30:40.505Z,44.58
2019-02-24T04:33:09.994Z,43.98
2019-02-24T04:35:39.396Z,43.30
2019-02-24T04:38:09.822Z,41.85
2019-02-24T04:40:39.270Z,45.95
2019-02-24T04:43:08.696Z,41.28
2019-02-24T04:45:38.150Z,46.05
2019-02-24T04:48:07.703Z,41.75
2019-02-24T04:50:37.165Z,40.90
2019-02-24T04:53:06.640Z,41.80
2019-02-24T04:55:36.083Z,43.17
2019-02-24T04:58:05.712Z,47.70
2019-02-24T05:00:35.127Z,43.35
2019-02-24T05:03:04.590Z,45.55
2019-02-24T05:05:34.060Z,48.42
2019-02-24T05:08:04.361Z,45.15
2019-02-24T05:10:33.840Z,47.27
2019-02-24T05:13:03.322Z,50.38
2019-02-24T05:15:32.779Z,44.48
2019-02-24T05:18:02.459Z,47.33
2019-02-24T05:20:31.915Z,45.15
2019-02-24T05:23:01.332Z,45.67
2019-02-24T05:25:30.788Z,46.18
2019-02-24T05:28:01.172Z,48.02
2019-02-24T05:30:30.636Z,42.95
2019-02-24T05:33:00.085Z,46.92
2019-02-24T05:35:29.487Z,46.73
2019-02-24T05:37:58.944Z,46.28
2019-02-24T05:40:28.347Z,43.35
2019-02-24T05:42:57.793Z,44.25
2019-02-24T05:45:27.195Z,44.15
2019-02-24T05:47:56.746Z,45.17
2019-02-24T05:50:26.368Z,43.00
2019-02-24T05:52:55.778Z,46.85
2019-02-24T05:55:25.186Z,44.73
2019-02-24T05:57:54.636Z,45.50
2019-02-24T06:00:24.041Z,45.52
2019-02-24T06:02:53.789Z,48.23
2019-02-24T06:05:23.201Z,40.03
2019-02-24T06:07:52.691Z,43.70
2019-02-24T06:10:22.123Z,43.48
2019-02-24T06:12:51.527Z,43.65
2019-02-24T06:15:20.980Z,45.38
2019-02-24T06:17:50.405Z,43.80
2019-02-24T06:20:19.865Z,48.38
2019-02-24T06:22:49.289Z,48.42
2019-02-24T06:25:18.749Z,45.25
2019-02-24T06:27:48.281Z,42.73
2019-02-24T06:30:17.745Z,43.38
2019-02-24T06:32:47.155Z,45.48
2019-02-24T06:35:17.589Z,44.35
2019-02-24T06:37:46.995Z,42.93
2019-02-24T06:40:16.442Z,41.23
2019-02-24T06:42:45.896Z,43.58
2019-02-24T06:45:15.359Z,42.13
2019-02-24T06:47:44.796Z,40.65
2019-02-24T06:50:14.347Z,40.52
2019-02-24T06:52:43.776Z,42.55
2019-02-24T06:55:13.218Z,41.37
2019-02-24T06:57:42.706Z,39.03
2019-02-24T07:00:14.413Z,42.50
2019-02-24T07:02:43.715Z,39.67
2019-02-24T07:05:13.167Z,40.28
2019-02-24T07:07:42.618Z,38.63
2019-02-24T07:10:12.057Z,37.13
2019-02-24T07:12:41.458Z,38.48
2019-02-24T07:15:11.033Z,40.70
2019-02-24T07:17:40.453Z,38.58
2019-02-24T07:20:11.776Z,39.13
2019-02-24T07:22:41.234Z,36.88
2019-02-24T07:25:10.646Z,36.45
2019-02-24T07:27:40.113Z,35.92
2019-02-24T07:30:10.262Z,39.25
2019-02-24T07:32:39.809Z,35.98
2019-02-24T07:35:09.217Z,40.83
2019-02-24T07:37:38.761Z,37.20
2019-02-24T07:40:09.223Z,38.80
2019-02-24T07:42:38.703Z,35.52
2019-02-24T07:45:09.171Z,35.63
2019-02-24T07:47:38.615Z,36.48
2019-02-24T07:50:09.371Z,38.28
2019-02-24T07:52:38.839Z,32.45
2019-02-24T07:55:08.346Z,34.13
2019-02-24T07:57:37.824Z,33.75
2019-02-24T08:00:10.481Z,36.35
2019-02-24T08:02:40.064Z,32.40
2019-02-24T08:05:09.539Z,37.23
2019-02-24T08:07:38.994Z,35.63
2019-02-24T08:10:08.663Z,34.05
2019-02-24T08:12:38.203Z,32.75
2019-02-24T08:15:09.053Z,31.73
2019-02-24T08:17:38.612Z,35.68
2019-02-24T08:20:09.582Z,36.98
2019-02-24T08:22:39.068Z,37.10
2019-02-24T08:25:08.759Z,37.70
2019-02-24T08:27:39.630Z,37.20
2019-02-24T08:30:11.499Z,35.52
2019-02-24T08:32:40.983Z,34.40
2019-02-24T08:35:10.669Z,29.05
2019-02-24T08:37:40.133Z,28.75
2019-02-24T08:40:09.902Z,28.73
2019-02-24T08:42:39.372Z,31.65
2019-02-24T08:45:10.371Z,30.92
2019-02-24T08:47:40.078Z,29.63
2019-02-24T08:50:10.814Z,27.58
2019-02-24T08:52:40.352Z,25.07
2019-02-24T08:55:10.829Z,25.27
2019-02-24T08:57:40.581Z,26.97
2019-02-24T09:00:15.299Z,22.87
2019-02-24T09:02:44.706Z,35.23
2019-02-24T09:05:14.188Z,30.90
2019-02-24T09:07:43.661Z,27.20
2019-02-24T09:10:13.083Z,25.82
2019-02-24T09:12:42.537Z,23.83
2019-02-24T09:15:13.352Z,27.15
2019-02-24T09:17:42.828Z,28.15
2019-02-24T09:20:13.132Z,23.38
2019-02-24T09:22:42.663Z,23.47
2019-02-24T09:25:12.110Z,20.62
2019-02-24T09:27:41.516Z,22.27
2019-02-24T09:30:14.226Z,19.05
2019-02-24T09:32:43.644Z,21.97
2019-02-24T09:35:13.098Z,19.90
2019-02-24T09:37:42.532Z,16.42
2019-02-24T09:40:12.864Z,14.80
2019-02-24T09:42:42.338Z,19.42
2019-02-24T09:45:13.046Z,16.05
2019-02-24T09:47:46.658Z,18.92
2019-02-24T09:50:13.636Z,16.75
2019-02-24T09:52:43.163Z,14.20
2019-02-24T09:55:12.645Z,17.25
2019-02-24T09:57:42.149Z,16.35
2019-02-24T10:00:13.668Z,16.50
2019-02-24T10:02:43.104Z,18.15
2019-02-24T10:05:12.682Z,17.52
2019-02-24T10:07:42.091Z,14.60
2019-02-24T10:10:13.372Z,13.63
2019-02-24T10:12:42.809Z,14.83
2019-02-24T10:15:16.261Z,15.68
2019-02-24T10:17:45.686Z,14.38
2019-02-24T10:20:15.239Z,15.37
2019-02-24T10:22:44.645Z,14.58
2019-02-24T10:25:14.119Z,14.27
2019-02-24T10:27:43.543Z,13.53
2019-02-24T10:30:14.865Z,16.17
2019-02-24T10:32:44.302Z,14.23
2019-02-24T10:35:13.731Z,14.25
2019-02-24T10:37:43.313Z,14.43
2019-02-24T10:40:16.713Z,15.38
2019-02-24T10:42:46.215Z,13.55
2019-02-24T10:45:19.713Z,12.75
2019-02-24T10:47:49.239Z,16.15
2019-02-24T10:50:18.742Z,12.63
2019-02-24T10:52:49.248Z,12.95
2019-02-24T10:55:18.767Z,12.85
2019-02-24T10:57:48.277Z,12.25
2019-02-24T11:00:20.582Z,11.05
2019-02-24T11:02:50.100Z,11.12
2019-02-24T11:05:19.631Z,13.48
2019-02-24T11:07:49.131Z,11.22
2019-02-24T11:10:18.641Z,10.40
2019-02-24T11:12:48.044Z,12.15
2019-02-24T11:15:17.473Z,12.27
2019-02-24T11:17:46.976Z,12.95
2019-02-24T11:20:18.323Z,10.28
2019-02-24T11:22:47.912Z,9.15
2019-02-24T11:25:18.286Z,9.70
2019-02-24T11:27:47.764Z,10.53
2019-02-24T11:30:17.167Z,8.90
2019-02-24T11:32:46.664Z,10.10
2019-02-24T11:35:16.198Z,11.03
2019-02-24T11:37:45.671Z,8.83
2019-02-24T11:40:17.784Z,10.28
2019-02-24T11:42:47.366Z,9.00
2019-02-24T11:45:16.853Z,11.12
2019-02-24T11:47:46.356Z,10.88
2019-02-24T11:50:15.863Z,9.80
2019-02-24T11:52:46.266Z,25.23
2019-02-24T11:55:15.765Z,12.58
2019-02-24T11:57:45.203Z,10.45
2019-02-24T12:00:17.904Z,10.70
2019-02-24T12:02:47.306Z,11.12
2019-02-24T12:05:16.822Z,9.88
2019-02-24T12:07:46.228Z,10.55
2019-02-24T12:10:15.832Z,11.90
2019-02-24T12:12:45.336Z,10.88
2019-02-24T12:15:15.385Z,11.53
2019-02-24T12:17:44.944Z,11.38
2019-02-24T12:20:15.157Z,12.33
2019-02-24T12:22:44.618Z,10.28
2019-02-24T12:25:14.108Z,11.30
2019-02-24T12:27:43.531Z,12.40
2019-02-24T12:30:14.486Z,13.33
2019-02-24T12:32:43.987Z,12.45
2019-02-24T12:35:13.495Z,12.18
2019-02-24T12:37:43.062Z,10.90
2019-02-24T12:40:14.029Z,11.90
2019-02-24T12:42:43.541Z,11.50
2019-02-24T12:45:13.196Z,11.00
2019-02-24T12:47:42.635Z,9.88
2019-02-24T12:50:18.734Z,12.78
2019-02-24T12:52:48.146Z,9.65
2019-02-24T12:55:17.717Z,10.82
2019-02-24T12:57:47.147Z,10.90
2019-02-24T13:00:27.933Z,11.90
2019-02-24T13:02:57.370Z,9.93
2019-02-24T13:05:28.647Z,12.33
2019-02-24T13:07:59.284Z,9.78
2019-02-24T13:10:31.314Z,11.45
2019-02-24T13:13:02.180Z,10.82
2019-02-24T13:15:31.743Z,9.75
2019-02-24T13:18:01.155Z,10.25
2019-02-24T13:20:30.716Z,9.60
2019-02-24T13:23:00.255Z,10.68
2019-02-24T13:25:29.821Z,11.43
2019-02-24T13:27:59.346Z,10.68
2019-02-24T13:30:28.848Z,9.98
2019-02-24T13:32:58.441Z,9.40
2019-02-24T13:35:28.092Z,9.73
2019-02-24T13:37:58.248Z,9.88
2019-02-24T13:40:27.771Z,11.18
2019-02-24T13:42:57.450Z,11.03
2019-02-24T13:45:27.038Z,11.10
2019-02-24T13:47:57.532Z,10.05
2019-02-24T13:50:27.196Z,10.50
2019-02-24T13:52:56.713Z,11.22
2019-02-24T13:55:26.298Z,11.45
2019-02-24T13:57:55.831Z,10.90
2019-02-24T14:00:25.825Z,10.08
2019-02-24T14:02:55.360Z,7.70
2019-02-24T14:05:24.877Z,9.33
2019-02-24T14:07:54.455Z,8.33
2019-02-24T14:10:23.855Z,8.55
2019-02-24T14:12:53.374Z,8.20
2019-02-24T14:15:22.854Z,8.15
2019-02-24T14:17:52.421Z,9.13
2019-02-24T14:20:22.011Z,8.98
2019-02-24T14:22:51.769Z,8.93
2019-02-24T14:25:21.295Z,9.90
2019-02-24T14:27:50.708Z,9.53
2019-02-24T14:30:20.114Z,8.78
2019-02-24T14:32:49.636Z,8.05
2019-02-24T14:35:23.562Z,9.78
2019-02-24T14:37:53.112Z,10.50
2019-02-24T14:40:22.838Z,10.40
2019-02-24T14:42:52.278Z,10.23
2019-02-24T14:45:23.886Z,9.20
2019-02-24T14:47:53.426Z,10.90
2019-02-24T14:50:23.087Z,9.98
2019-02-24T14:52:52.512Z,9.25
2019-02-24T14:55:22.130Z,9.33
2019-02-24T14:57:51.534Z,7.90
2019-02-24T15:00:24.819Z,8.58
2019-02-24T15:02:54.565Z,10.87
2019-02-24T15:05:24.200Z,10.78
2019-02-24T15:07:53.757Z,9.70
2019-02-24T15:10:24.665Z,9.58
2019-02-24T15:12:54.073Z,9.83
2019-02-24T15:15:32.902Z,9.28
2019-02-24T15:18:00.372Z,11.12
2019-02-24T15:20:29.812Z,11.43
2019-02-24T15:22:59.694Z,12.53
2019-02-24T15:25:29.094Z,14.90
2019-02-24T15:27:58.513Z,11.12
2019-02-24T15:30:33.428Z,12.60
2019-02-24T15:33:03.160Z,9.73
2019-02-24T15:35:32.575Z,10.45
2019-02-24T15:38:02.140Z,12.35
2019-02-24T15:40:31.575Z,9.43
2019-02-24T15:43:01.110Z,12.37
2019-02-24T15:45:30.535Z,11.33
2019-02-24T15:47:59.952Z,10.90
2019-02-24T15:50:29.572Z,9.98
2019-02-24T15:52:59.019Z,10.23
2019-02-24T15:55:28.502Z,11.88
2019-02-24T15:57:58.414Z,15.75
2019-02-24T16:00:28.026Z,11.00
2019-02-24T16:03:01.501Z,12.00
2019-02-24T16:05:28.851Z,10.58
2019-02-24T16:07:58.382Z,10.50
2019-02-24T16:10:27.911Z,8.83
2019-02-24T16:12:57.439Z,10.80
2019-02-24T16:15:28.943Z,10.58
2019-02-24T16:17:58.723Z,11.38
2019-02-24T16:20:36.282Z,17.60
2019-02-24T16:23:05.882Z,15.30
2019-02-24T16:25:35.354Z,12.35
2019-02-24T16:28:05.015Z,15.68
2019-02-24T16:30:34.488Z,10.43
2019-02-24T16:33:10.664Z,10.43
2019-02-24T16:35:35.950Z,11.30
2019-02-24T16:38:05.539Z,9.78
2019-02-24T16:40:35.090Z,10.05
2019-02-24T16:43:04.547Z,13.33
2019-02-24T16:45:34.225Z,14.87
2019-02-24T16:48:04.343Z,13.35
2019-02-24T16:50:33.936Z,11.93
2019-02-24T16:53:04.550Z,13.28
2019-02-24T16:55:34.116Z,12.45
2019-02-24T16:58:04.446Z,13.78
2019-02-24T17:00:34.069Z,13.65
2019-02-24T17:03:04.772Z,14.85
2019-02-24T17:05:34.308Z,13.90
2019-02-24T17:08:04.834Z,12.53
2019-02-24T17:10:34.367Z,14.13
2019-02-24T17:13:04.651Z,16.45
2019-02-24T17:15:34.060Z,13.90
2019-02-24T17:18:04.683Z,14.18
2019-02-24T17:20:34.281Z,15.58
2019-02-24T17:23:04.365Z,17.40
2019-02-24T17:25:34.076Z,17.20
2019-02-24T17:28:04.509Z,15.65
2019-02-24T17:30:34.313Z,21.12
2019-02-24T17:33:04.460Z,17.95
2019-02-24T17:35:34.073Z,15.70
2019-02-24T17:38:04.464Z,19.20
2019-02-24T17:40:34.071Z,15.38
2019-02-24T17:43:04.477Z,18.00
2019-02-24T17:45:34.129Z,18.98
2019-02-24T17:48:04.619Z,16.37
2019-02-24T17:50:34.185Z,19.45
2019-02-24T17:53:04.390Z,15.63
2019-02-24T17:55:33.988Z,17.32
2019-02-24T17:58:04.397Z,14.65
2019-02-24T18:00:35.870Z,13.95
2019-02-24T18:03:05.275Z,17.45
2019-02-24T18:05:34.834Z,20.35
2019-02-24T18:08:04.584Z,21.50
2019-02-24T18:10:33.987Z,21.27
2019-02-24T18:13:04.543Z,27.98
2019-02-24T18:15:34.079Z,60.12
2019-02-24T18:18:04.370Z,50.65
2019-02-24T18:20:34.063Z,30.27
2019-02-24T18:23:03.502Z,22.62
2019-02-24T18:25:33.147Z,24.70
2019-02-24T18:28:02.654Z,21.87
2019-02-24T18:30:32.350Z,16.48
2019-02-24T18:33:01.943Z,18.07
2019-02-24T18:35:31.571Z,18.45
2019-02-24T18:38:01.200Z,20.02
2019-02-24T18:40:30.610Z,19.48
2019-02-24T18:43:00.832Z,15.98
2019-02-24T18:45:30.552Z,16.90
2019-02-24T18:48:00.098Z,40.45
2019-02-24T18:50:29.675Z,20.77
2019-02-24T18:52:59.358Z,17.52
2019-02-24T18:55:28.853Z,16.37
2019-02-24T18:57:58.683Z,15.72
2019-02-24T19:00:28.323Z,17.37
2019-02-24T19:02:57.800Z,18.07
2019-02-24T19:05:27.361Z,19.67
2019-02-24T19:07:56.792Z,15.13
2019-02-24T19:10:26.229Z,17.47
2019-02-24T19:12:55.794Z,21.15
2019-02-24T19:15:25.812Z,18.02
2019-02-24T19:17:55.223Z,15.65
2019-02-24T19:20:25.395Z,16.87
2019-02-24T19:22:55.045Z,23.27
2019-02-24T19:25:24.579Z,26.77
2019-02-24T19:27:54.064Z,27.55
2019-02-24T19:30:23.964Z,22.15
2019-02-24T19:32:53.454Z,21.15
2019-02-24T19:35:23.187Z,21.90
2019-02-24T19:37:52.839Z,27.48
2019-02-24T19:40:22.595Z,21.63
2019-02-24T19:42:52.158Z,21.50
2019-02-24T19:45:24.766Z,23.60
2019-02-24T19:47:54.718Z,21.52
2019-02-24T19:50:24.721Z,22.27
2019-02-24T19:52:54.905Z,21.52
2019-02-24T19:55:24.370Z,21.40
2019-02-24T19:57:57.499Z,19.90
2019-02-24T20:00:27.795Z,20.80
2019-02-24T20:02:57.613Z,21.75
2019-02-24T20:05:27.518Z,24.75
2019-02-24T20:07:57.570Z,24.27
2019-02-24T20:10:28.628Z,25.17
2019-02-24T20:12:59.063Z,23.00
2019-02-24T20:15:29.202Z,22.87
2019-02-24T20:17:59.192Z,22.20
2019-02-24T20:20:28.937Z,22.05
2019-02-24T20:22:58.801Z,26.65
2019-02-24T20:25:28.596Z,23.52
2019-02-24T20:27:58.065Z,27.37
2019-02-24T20:30:29.579Z,24.75
2019-02-24T20:32:59.521Z,26.07
2019-02-24T20:35:29.208Z,26.62
2019-02-24T20:37:59.219Z,27.50
2019-02-24T20:40:28.900Z,26.68
2019-02-24T20:42:58.327Z,24.60
2019-02-24T20:45:29.410Z,27.85
2019-02-24T20:47:59.462Z,27.62
2019-02-24T20:50:31.258Z,28.07
2019-02-24T20:53:01.300Z,27.37
2019-02-24T20:55:30.902Z,27.27
2019-02-24T20:58:00.325Z,26.80
2019-02-24T21:00:35.704Z,27.60
2019-02-24T21:03:05.428Z,29.07
2019-02-24T21:05:35.461Z,31.57
2019-02-24T21:08:05.183Z,26.55
2019-02-24T21:10:34.840Z,30.90
2019-02-24T21:13:04.541Z,29.70
2019-02-24T21:15:34.495Z,29.25
2019-02-24T21:18:04.989Z,27.82
2019-02-24T21:20:35.126Z,28.15
2019-02-24T21:23:04.814Z,26.20
2019-02-24T21:25:34.285Z,27.32
2019-02-24T21:28:04.529Z,29.35
2019-02-24T21:30:34.011Z,28.30
2019-02-24T21:33:04.507Z,25.77
2019-02-24T21:35:34.093Z,28.47
2019-02-24T21:38:05.220Z,30.92
2019-02-24T21:40:34.928Z,31.02
2019-02-24T21:43:04.602Z,32.20
2019-02-24T21:45:34.988Z,30.23
2019-02-24T21:48:04.860Z,30.62
2019-02-24T21:50:34.418Z,30.62
2019-02-24T21:53:04.459Z,27.93
2019-02-24T21:55:33.984Z,30.05
2019-02-24T21:58:04.522Z,27.92
2019-02-24T22:00:33.932Z,29.45
2019-02-24T22:03:04.893Z,24.26
2019-02-24T22:05:34.432Z,25.80
2019-02-24T22:08:04.838Z,25.92
2019-02-24T22:10:34.334Z,26.80
2019-02-24T22:13:04.411Z,26.02
2019-02-24T22:15:33.880Z,26.77
2019-02-24T22:18:04.438Z,26.30
2019-02-24T22:20:33.870Z,26.20
2019-02-24T22:23:04.384Z,26.95
2019-02-24T22:25:33.787Z,28.00
2019-02-24T22:28:21.694Z,29.80
2019-02-24T22:30:51.358Z,31.52
2019-02-24T22:33:20.804Z,30.07
2019-02-24T22:35:50.906Z,33.05
2019-02-24T22:38:20.392Z,31.52
2019-02-24T22:40:54.402Z,27.67
2019-02-24T22:43:20.967Z,29.65
2019-02-24T22:45:50.463Z,27.17
2019-02-24T22:48:21.834Z,29.90
2019-02-24T22:50:51.319Z,28.25
2019-02-24T22:53:20.851Z,30.95
2019-02-24T22:55:50.270Z,27.05
2019-02-24T22:58:20.283Z,29.52
2019-02-24T23:00:53.881Z,27.65
2019-02-24T23:03:28.702Z,28.60
2019-02-24T23:05:58.943Z,30.57
2019-02-24T23:08:28.579Z,26.60
2019-02-24T23:10:58.015Z,28.92
2019-02-24T23:13:27.430Z,28.40
2019-02-24T23:15:56.954Z,29.15
2019-02-24T23:18:26.422Z,26.45
2019-02-24T23:20:56.070Z,26.02
2019-02-24T23:23:25.505Z,25.52
2019-02-24T23:25:54.942Z,29.92
2019-02-24T23:28:24.536Z,25.57
2019-02-24T23:30:54.031Z,25.10
2019-02-24T23:33:23.495Z,24.82
2019-02-24T23:35:53.061Z,25.97
2019-02-24T23:38:22.513Z,27.13
2019-02-24T23:40:51.947Z,27.27
2019-02-24T23:43:21.419Z,26.37
2019-02-24T23:45:50.843Z,25.00
2019-02-24T23:48:20.375Z,22.77
2019-02-24T23:50:49.775Z,24.07
2019-02-24T23:53:19.279Z,23.87
2019-02-24T23:55:48.816Z,23.18
2019-02-24T23:58:18.286Z,23.63
